KHBG/HBG METAR and TAF weather

Enter ICAO airport designator
Station Type Date Time Source
KHBG METAR 2020/04/05 21:53 UTC NOAA

KHBG 052153Z AUTO 36004KT 10SM BKN070 26/13 A2999 RMK AO2 SLP153 T02610133


Station Type Date Time Source
KHBG Decoded METAR 2020/04/05 21:53 UTC NOAA

HATTIESBURG CHAIN MUNICIPAL, MS, United States (KHBG) 31-16N 89-15W 44M
Apr 05, 2020 - 05:53 PM EDT / 2020.04.05 2153 UTC
Wind: from the N (360 degrees) at 5 MPH (4 KT):0
Visibility: 10 mile(s):0
Sky conditions: mostly cloudy
Temperature: 79.0 F (26.1 C)
Dew Point: 55.9 F (13.3 C)
Relative Humidity: 45%
Pressure (altimeter): 29.99 in. Hg (1015 hPa)
ob: KHBG 052153Z AUTO 36004KT 10SM BKN070 26/13 A2999 RMK AO2 SLP153 T02610133
cycle: 22

Station Type Date Time Source
KHBG TAF 2020/04/05 18:27 UTC NOAA

TAF KHBG 051724Z 0518/0618 VRB04KT P6SM SCT100
FM061000 00000KT 4SM BR OVC025
FM061400 00000KT P6SM BKN250

Example: see airport list